Time;durP1;ratioP1;P1;durP2;ratioP2;P2;SDS_P1;SDS_P2;PMS_P1;PMS_P2;Temp;Humidity;BMP_temperature;BMP_pressure;BME280_temperature;BME280_humidity;BME280_pressure;Samples;Min_cycle;Max_cycle;Signal;HPM_P1;HPM_P2
2021/06/18 00:01:14;;;;;;;5.22;2.72;;;;;;;29.75;30.73;94679.84;5118120;28;20405;-43
2021/06/18 00:03:42;;;;;;;4.80;3.05;;;;;;;29.16;31.44;94674.59;5118539;28;20058;-43
2021/06/18 00:06:09;;;;;;;4.95;2.70;;;;;;;29.86;30.63;94671.63;5118932;28;20437;-45
2021/06/18 00:08:37;;;;;;;3.65;3.05;;;;;;;29.42;31.12;94665.91;5118923;27;20050;-45
2021/06/18 00:11:04;;;;;;;4.40;2.75;;;;;;;29.88;30.49;94658.53;5119088;28;20048;-45
2021/06/18 00:13:31;;;;;;;3.22;2.92;;;;;;;29.92;30.32;94654.63;5127790;27;20434;-45
2021/06/18 00:15:59;;;;;;;4.35;2.92;;;;;;;29.32;31.58;94649.84;5131104;27;20055;-45
2021/06/18 00:18:26;;;;;;;3.53;2.97;;;;;;;29.45;31.20;94642.84;5098130;28;20408;-44
2021/06/18 00:20:53;;;;;;;4.53;3.08;;;;;;;29.41;31.84;94648.22;5098139;28;20040;-45
2021/06/18 00:23:20;;;;;;;3.17;2.88;;;;;;;29.38;31.81;94654.38;5106604;28;20043;-45
2021/06/18 00:25:54;;;;;;;3.97;2.80;;;;;;;29.51;31.45;94659.31;5118228;27;20051;-44
2021/06/18 00:28:21;;;;;;;3.70;2.50;;;;;;;29.78;31.05;94660.19;5118039;28;20052;-44
2021/06/18 00:30:48;;;;;;;4.25;3.17;;;;;;;29.65;31.14;94661.84;5099465;28;20051;-44
2021/06/18 00:33:15;;;;;;;4.50;3.30;;;;;;;29.75;31.00;94660.97;5109046;28;20054;-46
2021/06/18 00:35:43;;;;;;;3.10;2.70;;;;;;;29.64;31.24;94655.69;5117911;28;20043;-45
2021/06/18 00:38:10;;;;;;;3.45;2.80;;;;;;;29.52;31.37;94653.53;5118113;28;20044;-46
2021/06/18 00:40:37;;;;;;;5.90;3.30;;;;;;;29.76;31.15;94657.13;5118176;28;20354;-44
2021/06/18 00:43:04;;;;;;;3.10;2.45;;;;;;;29.55;31.35;94655.41;5123564;27;20039;-44
2021/06/18 00:45:31;;;;;;;2.80;2.58;;;;;;;29.29;31.88;94651.41;5136471;27;20043;-45
2021/06/18 00:48:00;;;;;;;4.03;2.97;;;;;;;29.48;31.32;94652.81;5118076;28;20047;-45
2021/06/18 00:50:28;;;;;;;4.72;2.97;;;;;;;29.33;31.78;94652.13;5117921;27;20057;-44
2021/06/18 00:52:55;;;;;;;3.60;3.00;;;;;;;29.34;31.80;94653.66;5111417;27;20366;-45
2021/06/18 00:55:22;;;;;;;4.00;2.70;;;;;;;29.66;31.42;94655.28;5117740;28;20381;-45
2021/06/18 00:57:50;;;;;;;3.58;2.15;;;;;;;29.31;31.42;94649.06;5117859;28;20062;-45
2021/06/18 01:00:18;;;;;;;6.38;2.83;;;;;;;29.40;30.87;94652.06;5117271;28;20044;-46
2021/06/18 01:02:45;;;;;;;3.03;2.47;;;;;;;29.26;31.15;94648.75;5116770;28;20469;-45
2021/06/18 01:05:17;;;;;;;4.57;2.88;;;;;;;29.43;31.24;94645.91;5117754;28;20362;-44
2021/06/18 01:08:09;;;;;;;4.65;2.40;;;;;;;28.88;31.81;94647.91;5117421;28;20358;-44
2021/06/18 01:10:50;;;;;;;4.72;2.70;;;;;;;29.14;31.37;94652.69;5096716;28;20048;-45
2021/06/18 01:13:25;;;;;;;2.83;2.35;;;;;;;29.34;30.98;94642.88;5112010;27;20053;-45
2021/06/18 01:16:06;;;;;;;3.95;2.40;;;;;;;29.36;30.73;94640.56;5133802;27;20473;-45
2021/06/18 01:18:49;;;;;;;4.20;2.58;;;;;;;29.20;31.55;94637.66;5116358;28;20054;-44
2021/06/18 01:21:37;;;;;;;4.95;2.70;;;;;;;29.09;31.36;94632.34;5117398;28;20051;-44
2021/06/18 01:24:26;;;;;;;3.67;2.75;;;;;;;29.11;31.24;94634.63;5115479;28;20377;-45
2021/06/18 01:27:18;;;;;;;4.28;2.50;;;;;;;29.67;30.43;94636.06;5117393;28;20346;-46
2021/06/18 01:29:51;;;;;;;4.28;2.67;;;;;;;29.38;31.02;94640.16;5116274;28;20052;-45
2021/06/18 01:32:22;;;;;;;6.75;2.90;;;;;;;29.38;30.80;94632.84;5116238;28;20052;-45
2021/06/18 01:34:51;;;;;;;5.15;2.70;;;;;;;29.17;30.96;94636.53;5117192;28;20069;-45
2021/06/18 01:37:20;;;;;;;3.80;2.40;;;;;;;29.25;31.02;94639.91;5116023;28;20050;-45
2021/06/18 01:39:48;;;;;;;3.78;2.53;;;;;;;29.12;31.17;94636.94;5115912;28;20043;-44
2021/06/18 01:42:17;;;;;;;3.95;2.65;;;;;;;29.02;31.50;94645.09;5116954;28;20055;-43
2021/06/18 01:44:44;;;;;;;3.47;2.50;;;;;;;29.10;31.29;94638.50;5118981;27;20048;-45
2021/06/18 01:47:14;;;;;;;3.30;2.28;;;;;;;28.96;31.51;94644.00;5134412;27;20361;-45
2021/06/18 01:49:43;;;;;;;3.35;2.65;;;;;;;28.73;31.47;94639.91;5137086;27;20050;-44
2021/06/18 01:52:12;;;;;;;3.95;2.60;;;;;;;29.00;31.18;94642.06;5136145;27;20046;-44
2021/06/18 01:54:40;;;;;;;4.20;2.40;;;;;;;29.15;30.97;94641.53;5116451;27;20055;-44
2021/06/18 01:57:08;;;;;;;2.72;2.30;;;;;;;29.04;31.18;94640.09;5116664;28;20366;-45
2021/06/18 01:59:36;;;;;;;6.07;2.65;;;;;;;29.09;30.87;94643.13;5114369;28;20039;-46
2021/06/18 02:02:05;;;;;;;3.88;2.42;;;;;;;29.32;30.38;94645.22;5099709;28;20473;-45
2021/06/18 02:04:33;;;;;;;3.75;2.60;;;;;;;28.87;31.00;94641.75;5112938;28;20044;-45
2021/06/18 02:07:01;;;;;;;4.78;2.35;;;;;;;29.18;30.31;94634.59;5116640;28;20047;-48
2021/06/18 02:09:29;;;;;;;2.58;1.80;;;;;;;29.38;29.95;94637.47;5114772;28;20062;-45
2021/06/18 02:11:56;;;;;;;2.85;1.98;;;;;;;29.35;30.05;94649.03;5112855;28;20055;-46
2021/06/18 02:14:26;;;;;;;3.25;2.00;;;;;;;28.85;30.96;94655.59;5116239;28;20039;-45
2021/06/18 02:16:56;;;;;;;3.67;2.40;;;;;;;28.92;31.29;94654.03;5130064;27;20058;-46
2021/06/18 02:19:24;;;;;;;3.83;2.40;;;;;;;28.99;31.08;94651.28;5133264;27;20043;-44
2021/06/18 02:21:53;;;;;;;3.70;3.00;;;;;;;28.83;31.43;94647.13;5116134;28;20461;-46
2021/06/18 02:24:23;;;;;;;4.85;2.58;;;;;;;29.14;30.87;94658.06;5115752;28;20047;-44
2021/06/18 02:26:50;;;;;;;6.00;3.25;;;;;;;29.08;31.27;94646.22;5115024;28;20054;-45
2021/06/18 02:29:17;;;;;;;3.38;2.83;;;;;;;28.96;31.21;94644.78;5097211;28;20047;-43
2021/06/18 02:31:45;;;;;;;3.40;2.53;;;;;;;28.94;31.31;94649.03;5114392;28;20477;-46
2021/06/18 02:34:13;;;;;;;5.40;2.95;;;;;;;29.14;30.87;94652.69;5113034;28;20051;-44
2021/06/18 02:36:41;;;;;;;5.55;2.70;;;;;;;28.72;31.28;94651.84;5094980;28;20063;-44
2021/06/18 02:39:10;;;;;;;3.72;2.80;;;;;;;28.21;32.49;94655.19;5095012;28;20473;-45
2021/06/18 02:41:38;;;;;;;5.93;3.10;;;;;;;28.65;31.52;94651.91;5115277;28;20047;-43
2021/06/18 02:44:05;;;;;;;4.07;3.10;;;;;;;28.98;30.89;94652.44;5116765;27;20039;-46
2021/06/18 02:46:41;;;;;;;4.30;2.65;;;;;;;28.33;31.90;94641.31;5127375;27;20468;-44
2021/06/18 02:49:23;;;;;;;3.83;2.70;;;;;;;28.29;32.34;94642.50;5134799;27;20058;-44
2021/06/18 02:52:02;;;;;;;4.25;3.00;;;;;;;28.61;31.50;94640.38;5094060;28;20048;-46
2021/06/18 02:54:45;;;;;;;5.43;3.15;;;;;;;28.60;31.67;94649.59;5109594;28;20059;-44
2021/06/18 02:57:18;;;;;;;3.95;3.13;;;;;;;28.33;32.11;94651.31;5115351;28;20059;-45
2021/06/18 03:00:11;;;;;;;3.47;2.80;;;;;;;28.25;31.87;94661.34;5113887;28;20335;-44
2021/06/18 03:02:48;;;;;;;4.32;2.92;;;;;;;28.40;31.89;94656.66;5115305;28;20055;-45
2021/06/18 03:05:17;;;;;;;4.68;2.92;;;;;;;28.47;31.71;94664.69;5115661;28;20039;-45
2021/06/18 03:07:58;;;;;;;5.03;2.97;;;;;;;28.39;31.89;94660.50;5115651;28;20050;-46
2021/06/18 03:10:26;;;;;;;3.10;2.87;;;;;;;28.29;31.53;94656.69;5113834;28;20458;-45
2021/06/18 03:13:03;;;;;;;3.80;2.83;;;;;;;28.18;32.14;94661.34;5116239;28;20047;-45
2021/06/18 03:15:32;;;;;;;4.55;3.42;;;;;;;28.75;31.22;94661.03;5117216;27;20051;-45
2021/06/18 03:18:00;;;;;;;9.60;3.58;;;;;;;28.33;31.83;94668.19;5134537;27;20054;-45
2021/06/18 03:20:28;;;;;;;5.32;3.40;;;;;;;28.30;31.91;94668.22;5124962;27;20734;-44
2021/06/18 03:23:00;;;;;;;3.75;3.00;;;;;;;28.47;31.59;94672.75;5114751;28;20047;-45
2021/06/18 03:25:29;;;;;;;6.45;3.88;;;;;;;28.79;30.96;94673.31;5113932;28;20051;-44
2021/06/18 03:27:57;;;;;;;5.60;3.15;;;;;;;28.39;31.97;94668.56;5114248;28;20434;-44
2021/06/18 03:30:25;;;;;;;4.38;3.60;;;;;;;28.76;31.41;94676.78;5113956;28;20055;-44
2021/06/18 03:32:53;;;;;;;5.00;3.42;;;;;;;28.55;31.85;94672.31;5114897;28;20044;-44
2021/06/18 03:35:21;;;;;;;4.63;2.97;;;;;;;28.46;32.20;94671.22;5114167;28;20043;-45
2021/06/18 03:37:49;;;;;;;5.68;3.60;;;;;;;28.36;32.17;94662.03;5113846;28;20465;-45
2021/06/18 03:40:17;;;;;;;4.30;3.67;;;;;;;28.17;32.75;94660.59;5114986;28;20358;-44
2021/06/18 03:42:44;;;;;;;7.53;3.88;;;;;;;28.06;33.04;94675.97;5116679;28;20051;-44
2021/06/18 03:45:12;;;;;;;5.80;4.47;;;;;;;28.57;32.30;94679.97;5114264;28;20051;-45
2021/06/18 03:47:39;;;;;;;6.80;4.43;;;;;;;28.23;33.12;94680.50;5134835;28;20435;-45
2021/06/18 03:50:08;;;;;;;7.20;4.80;;;;;;;28.37;32.81;94690.47;5135574;28;20043;-45
2021/06/18 03:52:36;;;;;;;7.07;5.03;;;;;;;28.97;31.83;94683.22;5134356;28;20073;-46
2021/06/18 03:55:04;;;;;;;5.68;5.05;;;;;;;28.65;32.29;94686.88;5116193;28;20044;-45
2021/06/18 03:57:32;;;;;;;6.88;5.45;;;;;;;28.86;32.19;94678.66;5114947;28;20058;-45
2021/06/18 04:00:00;;;;;;;8.32;5.78;;;;;;;28.94;32.12;94686.69;5113686;28;20070;-45
2021/06/18 04:02:29;;;;;;;10.38;5.97;;;;;;;28.97;32.29;94693.97;5114857;28;20369;-44
2021/06/18 04:04:57;;;;;;;8.05;5.60;;;;;;;28.80;32.25;94696.34;5113500;28;20039;-45
2021/06/18 04:07:24;;;;;;;8.15;5.35;;;;;;;28.86;32.05;94689.41;5097571;28;20048;-44
2021/06/18 04:09:51;;;;;;;8.93;5.68;;;;;;;28.82;32.38;94694.03;5093216;28;20052;-45
2021/06/18 04:12:19;;;;;;;9.45;6.65;;;;;;;28.57;32.58;94688.03;5094277;28;20446;-44
2021/06/18 04:14:46;;;;;;;9.18;5.95;;;;;;;28.80;32.19;94685.59;5118048;28;20051;-44
2021/06/18 04:17:13;;;;;;;8.52;6.28;;;;;;;29.25;31.84;94682.22;5132118;28;20387;-45
2021/06/18 04:19:42;;;;;;;8.90;6.22;;;;;;;29.66;31.18;94682.22;5119242;28;20051;-51
2021/06/18 04:22:10;;;;;;;7.45;5.32;;;;;;;29.44;31.55;94679.78;5114017;28;20485;-45
2021/06/18 04:24:37;;;;;;;7.85;5.50;;;;;;;29.55;31.56;94681.59;5113847;28;20054;-48
2021/06/18 04:27:04;;;;;;;8.07;6.03;;;;;;;29.62;31.62;94686.91;5114197;28;20060;-43
2021/06/18 04:29:31;;;;;;;8.13;5.35;;;;;;;29.83;31.39;94681.28;5113263;28;20044;-43
2021/06/18 04:31:58;;;;;;;7.93;5.70;;;;;;;29.68;32.20;94693.41;5114479;28;20044;-43
2021/06/18 04:34:26;;;;;;;9.48;5.88;;;;;;;29.86;31.50;94682.41;5116383;28;20043;-47
2021/06/18 04:36:53;;;;;;;9.15;5.60;;;;;;;29.98;31.31;94690.75;5117724;28;20339;-51
2021/06/18 04:39:20;;;;;;;7.90;5.90;;;;;;;30.26;31.22;94684.28;5111002;28;20040;-42
2021/06/18 04:41:47;;;;;;;8.32;5.05;;;;;;;30.44;30.58;94678.63;5097791;28;20351;-52
2021/06/18 04:44:14;;;;;;;8.32;5.85;;;;;;;30.12;31.27;94687.16;5114589;27;20047;-51
2021/06/18 04:46:41;;;;;;;8.57;5.50;;;;;;;30.18;31.39;94690.91;5118024;27;20047;-47
2021/06/18 04:49:08;;;;;;;9.55;5.93;;;;;;;30.25;31.82;94692.78;5117908;28;20078;-45
2021/06/18 04:51:35;;;;;;;16.20;5.70;;;;;;;30.16;31.63;94695.19;5117974;28;20039;-45
2021/06/18 04:54:03;;;;;;;9.68;5.32;;;;;;;30.22;31.05;94693.59;5117780;28;20055;-44
2021/06/18 04:56:30;;;;;;;5.90;5.30;;;;;;;30.48;31.00;94697.50;5116959;28;20052;-43
2021/06/18 04:58:58;;;;;;;9.07;5.57;;;;;;;30.98;30.13;94689.50;5113654;28;20343;-46
2021/06/18 05:01:25;;;;;;;10.65;5.85;;;;;;;30.48;30.40;94700.19;5097260;28;20079;-47
2021/06/18 05:03:54;;;;;;;8.63;5.80;;;;;;;30.49;30.75;94696.31;5102663;28;20067;-46
2021/06/18 05:06:21;;;;;;;8.13;5.55;;;;;;;30.60;30.73;94705.03;5115043;28;20051;-47
2021/06/18 05:08:48;;;;;;;8.80;5.88;;;;;;;30.21;31.18;94692.06;5117567;28;20043;-52
2021/06/18 05:11:15;;;;;;;13.30;5.60;;;;;;;30.31;30.99;94696.56;5117630;28;20050;-54
2021/06/18 05:13:42;;;;;;;10.30;6.07;;;;;;;30.10;31.50;94702.19;5123451;27;20450;-46
2021/06/18 05:16:09;;;;;;;10.65;6.45;;;;;;;30.59;30.69;94704.25;5125936;27;20046;-46
2021/06/18 05:18:37;;;;;;;11.20;5.25;;;;;;;30.69;30.63;94711.47;5137931;27;20058;-44
2021/06/18 05:21:04;;;;;;;8.63;6.63;;;;;;;30.35;30.92;94708.06;5137858;27;20468;-55
2021/06/18 05:23:45;;;;;;;10.05;5.60;;;;;;;30.40;30.95;94713.00;5133372;27;20180;-54
2021/06/18 05:26:12;;;;;;;8.55;6.13;;;;;;;30.49;30.58;94713.28;5132719;27;20047;-48
2021/06/18 05:28:39;;;;;;;10.25;5.70;;;;;;;30.49;30.75;94713.28;5133010;27;20039;-46
2021/06/18 05:31:07;;;;;;;7.82;5.90;;;;;;;30.90;29.91;94704.25;5133382;27;20055;-46
2021/06/18 05:33:34;;;;;;;12.05;6.35;;;;;;;30.92;30.21;94712.69;5119879;27;20331;-46
2021/06/18 05:36:01;;;;;;;7.60;5.57;;;;;;;30.84;30.47;94700.47;5132726;27;20067;-47
2021/06/18 05:38:28;;;;;;;10.82;6.00;;;;;;;30.69;30.85;94706.06;5132768;27;20051;-47
2021/06/18 05:40:55;;;;;;;6.82;6.07;;;;;;;31.47;29.55;94704.13;5131911;27;20050;-56
2021/06/18 05:43:22;;;;;;;10.48;5.75;;;;;;;31.25;30.12;94703.75;5138996;27;20034;-48
2021/06/18 05:45:49;;;;;;;8.13;6.07;;;;;;;31.73;29.06;94705.25;5138923;27;20465;-46
2021/06/18 05:48:17;;;;;;;8.48;6.00;;;;;;;31.25;29.84;94708.38;5153390;27;20392;-45
2021/06/18 05:50:44;;;;;;;8.98;6.13;;;;;;;31.50;29.94;94713.38;5152076;27;20050;-46
2021/06/18 05:53:11;;;;;;;8.00;5.80;;;;;;;31.54;29.49;94708.66;5112834;27;20051;-46
2021/06/18 05:55:38;;;;;;;6.65;5.90;;;;;;;32.08;29.22;94711.19;5131448;28;20043;-50
2021/06/18 05:58:05;;;;;;;7.55;6.68;;;;;;;31.69;29.11;94709.94;5130700;27;20047;-54
2021/06/18 06:00:32;;;;;;;9.82;6.25;;;;;;;32.62;28.01;94708.94;5111778;28;20082;-48
2021/06/18 06:02:59;;;;;;;9.95;6.30;;;;;;;32.28;28.31;94701.16;5131746;28;20039;-48
2021/06/18 06:05:26;;;;;;;11.38;6.10;;;;;;;31.81;29.56;94712.06;5131185;27;20458;-48
2021/06/18 06:07:54;;;;;;;8.48;6.70;;;;;;;32.25;28.44;94707.34;5125764;27;20047;-50
2021/06/18 06:10:21;;;;;;;10.80;7.53;;;;;;;32.53;28.06;94699.84;5111698;28;20470;-49
2021/06/18 06:12:48;;;;;;;8.43;6.68;;;;;;;32.66;28.46;94703.44;5118240;27;20035;-45
2021/06/18 06:15:15;;;;;;;8.43;6.00;;;;;;;32.73;28.16;94697.88;5136290;27;20047;-46
2021/06/18 06:17:44;;;;;;;10.68;7.03;;;;;;;33.10;27.12;94689.31;5152701;27;20046;-46
2021/06/18 06:20:12;;;;;;;12.25;7.10;;;;;;;32.17;29.35;94673.53;5152629;27;20054;-45
2021/06/18 06:22:39;;;;;;;8.90;6.82;;;;;;;32.15;29.19;94686.69;5152518;27;20478;-47
2021/06/18 06:25:07;;;;;;;9.88;6.65;;;;;;;32.40;29.76;94692.41;5137747;27;20055;-46
2021/06/18 06:27:34;;;;;;;9.27;6.90;;;;;;;32.63;29.81;94672.56;5131831;27;20466;-46
2021/06/18 06:30:02;;;;;;;9.23;7.07;;;;;;;33.10;27.82;94683.91;5131988;27;20054;-46
2021/06/18 06:32:29;;;;;;;8.80;7.05;;;;;;;33.01;28.25;94675.59;5114735;28;20054;-45
2021/06/18 06:34:57;;;;;;;9.20;6.20;;;;;;;33.17;28.63;94672.13;5110555;28;20052;-49
2021/06/18 06:37:25;;;;;;;8.88;6.32;;;;;;;32.44;29.81;94671.44;5117872;27;20043;-51
2021/06/18 06:39:52;;;;;;;11.57;6.85;;;;;;;32.78;29.07;94670.28;5118112;28;20054;-55
2021/06/18 06:42:19;;;;;;;8.57;6.43;;;;;;;32.48;29.56;94672.13;5117905;28;20039;-51
2021/06/18 06:44:46;;;;;;;11.38;6.30;;;;;;;32.55;29.68;94665.81;5112686;27;20055;-46
2021/06/18 06:47:13;;;;;;;11.38;7.00;;;;;;;33.01;29.46;94682.94;5135838;27;20357;-46
2021/06/18 06:49:40;;;;;;;8.38;6.55;;;;;;;33.22;28.65;94681.69;5138507;27;20051;-48
2021/06/18 06:52:08;;;;;;;8.38;6.38;;;;;;;33.38;28.34;94668.16;5132822;27;20058;-55
2021/06/18 06:54:35;;;;;;;7.60;5.82;;;;;;;33.18;29.16;94664.75;5117482;28;20050;-48
2021/06/18 06:57:03;;;;;;;6.38;5.20;;;;;;;33.34;28.72;94659.38;5116499;28;20047;-48
2021/06/18 06:59:30;;;;;;;7.97;4.50;;;;;;;33.64;27.44;94656.25;5117668;28;20047;-50
2021/06/18 07:01:57;;;;;;;6.07;4.22;;;;;;;33.87;27.56;94657.25;5117491;28;20043;-50
2021/06/18 07:04:24;;;;;;;4.40;3.40;;;;;;;33.75;27.56;94652.50;5117241;28;20488;-51
2021/06/18 07:06:51;;;;;;;7.30;3.72;;;;;;;33.94;27.20;94657.03;5117265;28;20051;-47
2021/06/18 07:09:18;;;;;;;7.50;3.70;;;;;;;33.93;27.11;94650.84;5117326;28;20062;-46
2021/06/18 07:11:45;;;;;;;7.07;3.78;;;;;;;34.78;26.64;94642.16;5102201;28;20051;-54
2021/06/18 07:14:13;;;;;;;4.95;3.33;;;;;;;34.67;26.34;94647.19;5126207;27;20051;-52
2021/06/18 07:16:40;;;;;;;5.35;3.40;;;;;;;34.69;26.08;94628.50;5118338;27;20051;-53
2021/06/18 07:19:07;;;;;;;3.78;3.00;;;;;;;34.76;26.05;94633.72;5117236;28;20358;-56
2021/06/18 07:21:34;;;;;;;4.93;3.13;;;;;;;34.66;26.16;94645.66;5117124;28;20051;-49
2021/06/18 07:24:01;;;;;;;4.57;3.10;;;;;;;34.39;26.79;94632.53;5117139;27;20438;-48
2021/06/18 07:26:29;;;;;;;5.65;3.00;;;;;;;34.74;26.64;94633.38;5115627;28;20055;-49
2021/06/18 07:28:56;;;;;;;2.72;2.53;;;;;;;34.72;25.43;94633.06;5117058;28;20335;-48
2021/06/18 07:31:23;;;;;;;5.32;2.90;;;;;;;34.69;26.73;94631.22;5115994;28;20048;-47
2021/06/18 07:33:50;;;;;;;7.10;2.60;;;;;;;34.94;26.55;94627.75;5117090;28;20040;-53
2021/06/18 07:36:17;;;;;;;3.70;2.72;;;;;;;34.93;26.70;94627.00;5115276;28;20043;-49
2021/06/18 07:38:46;;;;;;;5.20;2.85;;;;;;;35.19;26.06;94626.94;5116917;28;20047;-48
2021/06/18 07:41:13;;;;;;;3.22;2.60;;;;;;;35.16;25.33;94622.38;5117018;28;20366;-49
2021/06/18 07:43:40;;;;;;;5.05;2.67;;;;;;;35.33;25.88;94626.44;5115599;27;20381;-58
2021/06/18 07:46:07;;;;;;;4.65;2.72;;;;;;;35.08;25.99;94610.22;5115001;28;20059;-46
2021/06/18 07:48:35;;;;;;;8.18;2.67;;;;;;;35.52;26.04;94617.28;5116525;28;20069;-50
2021/06/18 07:51:03;;;;;;;3.05;2.70;;;;;;;35.18;26.87;94614.56;5115782;28;20044;-50
2021/06/18 07:53:30;;;;;;;3.45;2.30;;;;;;;35.02;26.50;94614.69;5116520;28;20052;-51
2021/06/18 07:55:57;;;;;;;2.97;2.30;;;;;;;35.29;25.73;94616.91;5115595;28;20055;-48
2021/06/18 07:58:24;;;;;;;4.55;2.80;;;;;;;32.81;29.80;94612.66;5116107;28;20053;-54
2021/06/18 08:00:51;;;;;;;3.30;2.47;;;;;;;34.63;26.61;94611.25;5116500;28;20446;-51
2021/06/18 08:03:18;;;;;;;2.80;2.40;;;;;;;35.27;26.09;94622.78;5116264;27;20062;-52
2021/06/18 08:05:46;;;;;;;4.63;2.30;;;;;;;35.72;25.36;94614.28;5115431;28;20028;-48
2021/06/18 08:08:13;;;;;;;4.55;2.20;;;;;;;35.79;24.35;94611.28;5115232;28;20047;-55
2021/06/18 08:10:40;;;;;;;3.80;2.13;;;;;;;35.66;24.80;94615.28;5111688;28;20040;-54
2021/06/18 08:13:07;;;;;;;2.65;2.15;;;;;;;35.75;24.59;94618.06;5099741;28;20050;-47
2021/06/18 08:15:34;;;;;;;3.28;2.22;;;;;;;36.51;24.02;94623.09;5118164;27;20043;-46
2021/06/18 08:18:01;;;;;;;4.97;2.50;;;;;;;36.04;24.40;94607.69;5115984;28;20043;-47
2021/06/18 08:20:29;;;;;;;5.82;2.50;;;;;;;35.94;25.38;94614.31;5101199;28;20075;-46
2021/06/18 08:22:57;;;;;;;5.25;2.70;;;;;;;36.22;25.10;94606.28;5095600;28;20055;-46
2021/06/18 08:25:24;;;;;;;3.85;2.63;;;;;;;36.11;25.07;94612.13;5095989;28;20052;-45
2021/06/18 08:27:52;;;;;;;3.88;2.30;;;;;;;36.72;23.88;94611.38;5115410;28;20043;-46
2021/06/18 08:30:19;;;;;;;5.10;2.78;;;;;;;36.30;24.13;94607.53;5115507;28;20469;-47
2021/06/18 08:32:47;;;;;;;3.42;2.38;;;;;;;36.34;24.06;94602.72;5115889;28;20036;-47
2021/06/18 08:35:14;;;;;;;2.40;2.15;;;;;;;36.21;23.86;94602.06;5115835;28;20438;-47
2021/06/18 08:37:41;;;;;;;2.28;2.08;;;;;;;36.22;23.75;94601.59;5115384;28;20047;-48
2021/06/18 08:40:08;;;;;;;3.60;2.20;;;;;;;36.38;22.97;94604.13;5115474;28;20361;-57
2021/06/18 08:42:36;;;;;;;5.30;2.35;;;;;;;35.95;24.06;94599.50;5110492;28;20047;-47
2021/06/18 08:45:05;;;;;;;3.10;2.30;;;;;;;35.83;24.20;94603.78;5094288;28;20439;-46
2021/06/18 08:47:33;;;;;;;2.40;1.98;;;;;;;35.51;23.82;94599.47;5111885;28;20559;-46
2021/06/18 08:50:00;;;;;;;17.10;2.20;;;;;;;35.61;24.17;94602.25;5115404;28;20047;-53
2021/06/18 08:52:29;;;;;;;4.13;2.65;;;;;;;35.77;23.56;94594.66;5115499;28;20047;-55
2021/06/18 08:54:56;;;;;;;2.53;2.30;;;;;;;35.25;25.03;94608.88;5115095;28;20074;-45
2021/06/18 08:57:24;;;;;;;4.25;2.47;;;;;;;35.40;24.74;94596.38;5113195;28;20043;-46
2021/06/18 08:59:51;;;;;;;8.80;7.90;;;;;;;35.52;24.97;94600.97;5115411;28;20067;-46
2021/06/18 09:02:18;;;;;;;7.30;6.60;;;;;;;35.07;25.84;94598.59;5114406;28;20052;-46
2021/06/18 09:05:07;;;;;;;15.23;12.52;;;;;;;35.28;25.37;94594.41;5096882;28;20054;-46
2021/06/18 09:07:49;;;;;;;8.25;7.45;;;;;;;35.79;24.50;94592.25;5110994;28;20043;-49
2021/06/18 09:10:37;;;;;;;3.72;3.30;;;;;;;35.95;23.82;94587.88;5115323;28;20382;-50
2021/06/18 09:13:30;;;;;;;3.40;2.58;;;;;;;35.68;24.43;94593.84;5107719;28;20043;-52
2021/06/18 09:15:58;;;;;;;8.18;2.60;;;;;;;35.40;24.49;94592.91;5105928;27;20047;-55
2021/06/18 09:18:41;;;;;;;4.30;2.13;;;;;;;35.57;23.68;94588.78;5114757;28;20050;-57
2021/06/18 09:21:18;;;;;;;2.42;1.95;;;;;;;36.08;22.89;94578.41;5114060;28;20050;-51
2021/06/18 09:23:51;;;;;;;2.35;2.15;;;;;;;36.20;23.09;94590.41;5115190;28;20060;-49
2021/06/18 09:26:26;;;;;;;4.45;3.92;;;;;;;35.97;22.96;94586.22;5113756;28;20047;-48
2021/06/18 09:29:10;;;;;;;6.53;5.80;;;;;;;36.10;22.36;94583.41;5114705;28;20043;-51
2021/06/18 09:31:59;;;;;;;4.50;2.10;;;;;;;36.43;22.34;94578.28;5114040;28;20048;-54
2021/06/18 09:37:51;;;;;;;5.60;2.13;;;;;;;37.12;21.19;94577.09;5104219;28;20055;-57
2021/06/18 09:40:20;;;;;;;3.58;2.30;;;;;;;37.15;21.71;94571.50;5052277;28;20056;-51
2021/06/18 09:43:02;;;;;;;2.33;2.10;;;;;;;36.56;22.65;94581.66;5089298;28;20056;-51
2021/06/18 09:45:38;;;;;;;5.63;2.10;;;;;;;36.76;22.32;94573.09;5135190;28;20051;-52
2021/06/18 09:48:09;;;;;;;5.07;1.92;;;;;;;36.67;21.98;94573.81;5109560;28;20051;-53
2021/06/18 09:50:39;;;;;;;2.30;1.70;;;;;;;37.10;20.79;94574.84;5115117;28;20086;-54
2021/06/18 09:53:22;;;;;;;2.25;1.77;;;;;;;37.43;20.53;94558.66;5114784;28;20050;-51
2021/06/18 09:56:11;;;;;;;1.73;1.60;;;;;;;37.04;20.32;94558.34;5114660;28;20043;-51
2021/06/18 09:58:45;;;;;;;1.73;1.63;;;;;;;37.06;20.29;94563.34;5101657;28;20051;-51
2021/06/18 10:01:19;;;;;;;1.85;1.42;;;;;;;36.39;21.17;94555.88;5094466;28;20040;-52
2021/06/18 10:04:06;;;;;;;4.13;1.70;;;;;;;36.11;21.42;94563.91;5094314;28;20048;-46
2021/06/18 10:06:35;;;;;;;2.33;1.60;;;;;;;36.60;21.25;94560.50;5100163;28;20043;-54
2021/06/18 10:09:04;;;;;;;12.57;10.05;;;;;;;36.54;21.99;94562.28;5115730;28;20043;-53
2021/06/18 10:11:32;;;;;;;8.48;7.68;;;;;;;36.48;21.28;94553.22;5118827;28;20043;-55
2021/06/18 10:13:59;;;;;;;6.63;5.97;;;;;;;36.87;20.73;94548.94;5128433;27;20042;-52
2021/06/18 10:16:27;;;;;;;3.75;2.83;;;;;;;36.94;20.15;94545.16;5117259;28;20043;-50
2021/06/18 10:18:59;;;;;;;3.20;2.10;;;;;;;36.59;20.58;94542.63;5118162;28;20039;-47
2021/06/18 10:21:27;;;;;;;2.67;2.17;;;;;;;36.85;20.59;94550.59;5118218;28;20043;-50
2021/06/18 10:23:58;;;;;;;2.10;1.80;;;;;;;36.92;20.50;94542.13;5117197;28;20040;-47
2021/06/18 10:26:26;;;;;;;2.20;1.70;;;;;;;36.92;20.65;94531.22;5117317;28;20051;-48
2021/06/18 10:29:02;;;;;;;2.28;1.92;;;;;;;36.68;21.52;94542.66;5116816;28;20055;-54
2021/06/18 10:31:37;;;;;;;3.53;2.25;;;;;;;36.85;21.33;94542.41;5118294;28;20373;-48
2021/06/18 10:34:09;;;;;;;2.97;1.90;;;;;;;36.84;21.56;94544.38;5118095;28;20035;-45
2021/06/18 10:36:37;;;;;;;2.42;1.95;;;;;;;37.23;20.73;94537.31;5105089;28;20048;-46
2021/06/18 10:39:15;;;;;;;4.10;2.00;;;;;;;37.19;21.16;94533.97;5116242;28;20031;-46
2021/06/18 10:42:06;;;;;;;3.80;1.95;;;;;;;36.58;21.80;94541.13;5117977;27;20058;-46
2021/06/18 10:44:39;;;;;;;2.75;2.33;;;;;;;36.97;20.73;94538.81;5116946;27;20484;-46
2021/06/18 10:47:20;;;;;;;7.57;2.17;;;;;;;37.00;20.80;94537.91;5131334;27;20357;-48
2021/06/18 10:49:47;;;;;;;10.73;8.32;;;;;;;36.90;21.56;94544.53;5116408;28;20043;-45
2021/06/18 10:52:18;;;;;;;30.42;21.65;;;;;;;36.82;21.20;94537.88;5117670;28;20051;-46
2021/06/18 10:54:58;;;;;;;5.32;4.82;;;;;;;37.06;20.56;94536.09;5117653;28;20039;-53
2021/06/18 10:57:53;;;;;;;3.25;2.00;;;;;;;36.71;20.75;94522.72;5123340;28;20047;-48
2021/06/18 11:00:39;;;;;;;3.00;2.10;;;;;;;36.82;21.04;94524.25;5105048;28;20047;-50
2021/06/18 11:04:06;;;;;;;2.28;1.80;;;;;;;36.74;20.90;94527.25;5097058;28;20035;-46
2021/06/18 11:06:43;;;;;;;2.97;1.92;;;;;;;36.65;21.24;94518.28;5096982;28;20048;-54
2021/06/18 11:09:11;;;;;;;4.22;1.75;;;;;;;37.04;20.71;94525.66;5116084;28;20058;-47
2021/06/18 11:11:39;;;;;;;1.95;1.70;;;;;;;37.12;21.21;94528.06;5116513;28;20047;-55
2021/06/18 11:14:10;;;;;;;2.67;1.88;;;;;;;36.84;21.24;94519.88;5129765;27;20039;-54
2021/06/18 11:16:41;;;;;;;;;;;;;;;36.95;20.86;94520.16;5134871;27;20039;-49
2021/06/18 11:19:20;;;;;;;1.88;1.67;;;;;;;36.91;21.60;94514.13;5115042;28;20329;-47
2021/06/18 11:21:47;;;;;;;2.88;2.30;;;;;;;36.88;21.98;94515.03;5117131;28;20456;-50
2021/06/18 11:24:39;;;;;;;2.00;1.70;;;;;;;36.58;21.98;94508.47;5117408;27;20047;-47
2021/06/18 11:27:24;;;;;;;2.95;1.95;;;;;;;36.90;21.84;94517.31;5116395;28;20050;-50
2021/06/18 11:30:29;;;;;;;2.50;1.95;;;;;;;36.52;21.83;94510.25;5115839;28;20358;-47
2021/06/18 11:32:58;;;;;;;2.97;1.90;;;;;;;36.37;22.16;94509.31;5117001;27;20047;-48
2021/06/18 11:35:34;;;;;;;4.65;2.13;;;;;;;36.45;22.26;94516.00;5115884;28;20043;-53
2021/06/18 11:38:11;;;;;;;9.20;8.30;;;;;;;36.26;21.71;94508.94;5116566;28;20051;-47
2021/06/18 11:40:38;;;;;;;4.03;3.33;;;;;;;36.70;21.31;94504.88;5116592;28;20043;-46
2021/06/18 11:43:05;;;;;;;3.50;2.20;;;;;;;36.89;21.50;94511.09;5120438;27;20043;-48
2021/06/18 11:45:44;;;;;;;2.20;2.00;;;;;;;36.87;21.60;94513.50;5136912;27;20047;-51
2021/06/18 11:48:15;;;;;;;2.20;1.90;;;;;;;36.70;21.37;94513.03;5118782;27;20055;-59
2021/06/18 11:50:43;;;;;;;3.08;1.73;;;;;;;36.54;22.39;94507.84;5111748;28;20044;-46